createdAt,value
2023-05-05T00:03:11.756Z,101153.59
2023-05-05T00:08:14.644Z,101157.72
2023-05-05T00:13:18.858Z,101170.66
2023-05-05T00:18:21.712Z,101173.84
2023-05-05T00:23:25.627Z,101171.40
2023-05-05T00:28:28.441Z,101169.71
2023-05-05T00:33:31.279Z,101166.77
2023-05-05T00:38:33.998Z,101161.94
2023-05-05T00:43:36.722Z,101160.45
2023-05-05T00:48:40.140Z,101160.11
2023-05-05T00:53:45.115Z,101157.86
2023-05-05T00:58:49.155Z,101155.48
2023-05-05T01:03:52.888Z,101148.44
2023-05-05T01:09:02.243Z,101148.19
2023-05-05T01:14:19.439Z,101146.67
2023-05-05T01:19:40.939Z,101149.27
2023-05-05T01:25:03.071Z,101145.92
2023-05-05T01:30:43.811Z,101144.38
2023-05-05T01:35:53.915Z,101149.86
2023-05-05T01:41:12.180Z,101148.31
2023-05-05T01:46:16.136Z,101148.33
2023-05-05T01:51:21.779Z,101145.02
2023-05-05T01:56:29.285Z,101143.79
2023-05-05T02:01:32.074Z,101144.66
2023-05-05T02:06:35.866Z,101145.79
2023-05-05T02:11:39.604Z,101139.79
2023-05-05T02:16:43.228Z,101139.43
2023-05-05T02:21:46.019Z,101142.95
2023-05-05T02:26:51.905Z,101146.95
2023-05-05T02:32:02.088Z,101142.58
2023-05-05T02:37:07.362Z,101146.41
2023-05-05T02:42:13.367Z,101148.66
2023-05-05T02:47:16.397Z,101150.80
2023-05-05T02:52:19.260Z,101156.13
2023-05-05T02:57:31.620Z,101158.89
2023-05-05T03:02:45.415Z,101162.09
2023-05-05T03:07:56.214Z,101157.59
2023-05-05T03:13:02.228Z,101154.38
2023-05-05T03:18:06.737Z,101161.89
2023-05-05T03:23:10.362Z,101166.42
2023-05-05T03:28:15.721Z,101178.16
2023-05-05T03:33:18.709Z,101176.96
2023-05-05T03:38:21.635Z,101184.33
2023-05-05T03:43:24.380Z,101187.30
2023-05-05T03:48:27.288Z,101190.95
2023-05-05T03:53:30.191Z,101191.06
2023-05-05T03:58:32.912Z,101195.83
2023-05-05T04:03:35.809Z,101200.44
2023-05-05T04:08:38.607Z,101201.48
2023-05-05T04:13:43.609Z,101204.88
2023-05-05T04:18:46.369Z,101214.74
2023-05-05T04:23:49.297Z,101215.56
2023-05-05T04:28:52.049Z,101222.59
2023-05-05T04:33:55.276Z,101219.63
2023-05-05T04:38:58.221Z,101220.90
2023-05-05T04:44:01.022Z,101225.73
2023-05-05T04:49:05.213Z,101230.02
2023-05-05T04:54:10.711Z,101234.84
2023-05-05T04:59:14.371Z,101243.94
2023-05-05T05:04:18.762Z,101246.41
2023-05-05T05:09:21.606Z,101249.85
2023-05-05T05:14:24.435Z,101263.24
2023-05-05T05:19:27.122Z,101264.85
2023-05-05T05:24:30.187Z,101266.73
2023-05-05T05:29:37.071Z,101266.71
2023-05-05T05:34:43.805Z,101271.91
2023-05-05T05:39:53.142Z,101281.79
2023-05-05T05:44:57.378Z,101280.23
2023-05-05T05:50:00.197Z,101283.30
2023-05-05T05:55:03.570Z,101282.26
2023-05-05T06:00:07.363Z,101284.50
2023-05-05T06:05:11.036Z,101286.49
2023-05-05T06:10:26.694Z,101287.21
2023-05-05T06:15:30.577Z,101292.82
2023-05-05T06:20:33.401Z,101296.42
2023-05-05T06:25:37.197Z,101304.92
2023-05-05T06:30:40.209Z,101305.48
2023-05-05T06:35:43.299Z,101304.30
2023-05-05T06:40:52.198Z,101303.64
2023-05-05T06:45:55.243Z,101301.29
2023-05-05T06:50:58.069Z,101302.30
2023-05-05T06:56:00.828Z,101304.89
2023-05-05T07:01:04.213Z,101303.49
2023-05-05T07:06:07.190Z,101304.03
2023-05-05T07:11:09.895Z,101301.86
2023-05-05T07:16:15.488Z,101303.24
2023-05-05T07:21:18.399Z,101300.90
2023-05-05T07:26:21.267Z,101302.20
2023-05-05T07:31:24.517Z,101305.71
2023-05-05T07:36:27.963Z,101308.45
2023-05-05T07:41:31.291Z,101315.83
2023-05-05T07:46:34.413Z,101312.21
2023-05-05T07:51:37.707Z,101312.98
2023-05-05T07:56:40.529Z,101318.20
2023-05-05T08:01:43.506Z,101316.06
2023-05-05T08:06:48.622Z,101317.71
2023-05-05T08:11:51.444Z,101320.34
2023-05-05T08:16:57.565Z,101319.64
2023-05-05T08:22:01.579Z,101319.73
2023-05-05T08:27:04.501Z,101319.71
2023-05-05T08:32:07.228Z,101318.94
2023-05-05T08:37:09.940Z,101325.10
2023-05-05T08:42:17.604Z,101327.19
2023-05-05T08:47:29.072Z,101321.73
2023-05-05T08:52:42.107Z,101325.39
2023-05-05T08:57:53.025Z,101325.23
2023-05-05T09:03:01.568Z,101329.92
2023-05-05T09:08:09.757Z,101326.83
2023-05-05T09:18:33.376Z,101332.78
2023-05-05T09:23:36.135Z,101335.73
2023-05-05T09:28:51.418Z,101343.50
2023-05-05T09:33:54.554Z,101338.23
2023-05-05T09:39:06.228Z,101337.73
2023-05-05T09:44:13.406Z,101341.00
2023-05-05T09:49:54.036Z,101343.08
2023-05-05T09:54:59.414Z,101338.77
2023-05-05T10:00:07.269Z,101341.56
2023-05-05T10:05:18.203Z,101337.27
2023-05-05T10:10:21.134Z,101338.93
2023-05-05T10:15:24.295Z,101340.81
2023-05-05T10:20:27.550Z,101338.02
2023-05-05T10:25:35.298Z,101336.66
2023-05-05T10:30:44.084Z,101339.06
2023-05-05T10:36:02.526Z,101338.23
2023-05-05T10:41:20.820Z,101334.03
2023-05-05T10:46:28.275Z,101330.69
2023-05-05T10:52:21.370Z,101332.36
2023-05-05T10:57:59.269Z,101335.40
2023-05-05T11:03:19.129Z,101326.41
2023-05-05T11:08:27.194Z,101318.23
2023-05-05T11:13:30.598Z,101319.08
2023-05-05T11:18:53.021Z,101315.70
2023-05-05T11:24:27.618Z,101311.89
2023-05-05T11:30:04.476Z,101302.88
2023-05-05T11:35:08.224Z,101301.44
2023-05-05T11:40:22.377Z,101298.66
2023-05-05T11:45:25.965Z,101296.34
2023-05-05T11:50:35.860Z,101297.02
2023-05-05T11:55:38.662Z,101293.23
2023-05-05T12:00:44.468Z,101290.05
2023-05-05T12:05:48.799Z,101289.85
2023-05-05T12:10:51.641Z,101292.60
2023-05-05T12:15:54.373Z,101292.54
2023-05-05T12:20:57.256Z,101292.77
2023-05-05T12:26:01.016Z,101287.30
2023-05-05T12:31:08.085Z,101295.45
2023-05-05T12:36:12.261Z,101285.92
2023-05-05T12:41:22.855Z,101284.91
2023-05-05T12:46:27.217Z,101288.58
2023-05-05T12:51:32.091Z,101281.19
2023-05-05T12:56:36.288Z,101280.10
2023-05-05T13:01:50.970Z,101280.91
2023-05-05T13:07:13.525Z,101283.59
2023-05-05T13:12:19.742Z,101285.42
2023-05-05T13:17:23.977Z,101275.98
2023-05-05T13:22:26.803Z,101269.13
2023-05-05T13:27:29.650Z,101263.21
2023-05-05T13:32:32.400Z,101256.48
2023-05-05T13:37:35.152Z,101255.88
2023-05-05T13:42:38.196Z,101253.52
2023-05-05T13:47:42.126Z,101253.40
2023-05-05T13:52:45.101Z,101249.54
2023-05-05T13:57:47.849Z,101246.19
2023-05-05T14:02:51.073Z,101244.40
2023-05-05T14:07:57.095Z,101239.50
2023-05-05T14:12:59.756Z,101237.99
2023-05-05T14:18:02.653Z,101238.56
2023-05-05T14:23:05.468Z,101227.64
2023-05-05T14:28:08.280Z,101226.79
2023-05-05T14:33:11.143Z,101224.02
2023-05-05T14:38:13.844Z,101229.42
2023-05-05T14:43:16.788Z,101238.05
2023-05-05T14:48:22.807Z,101239.85
2023-05-05T14:53:25.478Z,101242.29
2023-05-05T14:58:28.194Z,101240.00
2023-05-05T15:03:31.087Z,101240.99
2023-05-05T15:08:34.630Z,101236.50
2023-05-05T15:13:40.416Z,101234.56
2023-05-05T15:18:43.382Z,101232.99
2023-05-05T15:23:47.202Z,101239.31
2023-05-05T15:28:50.501Z,101239.11
2023-05-05T15:33:53.302Z,101233.23
2023-05-05T15:38:56.794Z,101229.33
2023-05-05T15:44:00.622Z,101233.19
2023-05-05T15:49:03.725Z,101234.02
2023-05-05T15:54:06.436Z,101228.67
2023-05-05T15:59:09.145Z,101225.84
2023-05-05T16:04:12.259Z,101226.83
2023-05-05T16:09:15.001Z,101220.64
2023-05-05T16:14:17.881Z,101220.74
2023-05-05T16:19:23.252Z,101221.27
2023-05-05T16:24:26.168Z,101216.16
2023-05-05T16:29:29.901Z,101211.16
2023-05-05T16:34:33.009Z,101210.07
2023-05-05T16:39:40.337Z,101214.80
2023-05-05T16:44:43.320Z,101215.79
2023-05-05T16:49:46.702Z,101212.56
2023-05-05T16:54:55.545Z,101216.04
2023-05-05T16:59:58.393Z,101221.73
2023-05-05T17:05:04.936Z,101223.38
2023-05-05T17:10:08.360Z,101225.20
2023-05-05T17:15:11.589Z,101226.65
2023-05-05T17:20:14.889Z,101231.42
2023-05-05T17:25:17.703Z,101234.10
2023-05-05T17:30:22.801Z,101242.98
2023-05-05T17:35:25.725Z,101244.98
2023-05-05T17:40:28.571Z,101250.08
2023-05-05T17:45:32.036Z,101249.39
2023-05-05T17:50:35.252Z,101252.67
2023-05-05T17:55:38.226Z,101259.13
2023-05-05T18:00:40.973Z,101261.86
2023-05-05T18:05:43.689Z,101265.41
2023-05-05T18:10:46.464Z,101268.44
2023-05-05T18:15:49.140Z,101274.96
2023-05-05T18:20:51.991Z,101280.94
2023-05-05T18:25:54.764Z,101283.44
2023-05-05T18:30:57.493Z,101282.52
2023-05-05T18:36:02.172Z,101290.35
2023-05-05T18:41:04.958Z,101297.14
2023-05-05T18:46:07.899Z,101295.31
2023-05-05T18:51:11.926Z,101302.36
2023-05-05T18:56:14.631Z,101306.46
2023-05-05T19:01:17.752Z,101312.20
2023-05-05T19:06:20.703Z,101315.81
2023-05-05T19:11:24.185Z,101322.52
2023-05-05T19:16:27.799Z,101315.69
2023-05-05T19:21:31.736Z,101319.93
2023-05-05T19:26:34.494Z,101323.40
2023-05-05T19:31:37.286Z,101314.73
2023-05-05T19:36:40.081Z,101314.70
2023-05-05T19:41:44.061Z,101312.66
2023-05-05T19:46:48.242Z,101310.79
2023-05-05T19:51:52.162Z,101320.92
2023-05-05T19:56:55.440Z,101318.67
2023-05-05T20:02:00.318Z,101322.67
2023-05-05T20:07:04.468Z,101327.81
2023-05-05T20:12:07.520Z,101330.14
2023-05-05T20:17:10.280Z,101329.45
2023-05-05T20:22:13.001Z,101329.45
2023-05-05T20:27:15.823Z,101332.10
2023-05-05T20:32:20.643Z,101328.76
2023-05-05T20:37:23.523Z,101331.89
2023-05-05T20:42:27.779Z,101334.98
2023-05-05T20:47:30.759Z,101341.98
2023-05-05T20:52:34.607Z,101337.61
2023-05-05T20:57:37.656Z,101337.17
2023-05-05T21:02:40.710Z,101337.21
2023-05-05T21:07:47.074Z,101335.47
2023-05-05T21:12:50.149Z,101337.41
2023-05-05T21:17:53.373Z,101335.98
2023-05-05T21:22:56.988Z,101343.19
2023-05-05T21:27:59.658Z,101337.05
2023-05-05T21:33:02.373Z,101337.11
2023-05-05T21:38:05.179Z,101332.52
2023-05-05T21:43:07.910Z,101333.50
2023-05-05T21:48:10.686Z,101338.82
2023-05-05T21:53:13.370Z,101341.98
2023-05-05T21:58:16.632Z,101343.14
2023-05-05T22:03:19.529Z,101344.93
2023-05-05T22:08:22.382Z,101339.86
2023-05-05T22:13:25.132Z,101338.41
2023-05-05T22:18:27.930Z,101345.27
2023-05-05T22:23:30.823Z,101340.08
2023-05-05T22:28:33.607Z,101338.79
2023-05-05T22:33:36.371Z,101338.59
2023-05-05T22:38:39.102Z,101339.23
2023-05-05T22:43:41.982Z,101340.48
2023-05-05T22:48:45.016Z,101339.40
2023-05-05T22:53:47.739Z,101339.02
2023-05-05T22:58:50.552Z,101336.02
2023-05-05T23:03:53.589Z,101339.31
2023-05-05T23:08:56.309Z,101339.16
2023-05-05T23:13:59.013Z,101335.89
2023-05-05T23:19:01.714Z,101331.52
2023-05-05T23:24:04.462Z,101332.98
2023-05-05T23:29:07.377Z,101325.85
2023-05-05T23:34:12.395Z,101328.88
2023-05-05T23:39:15.114Z,101323.56
2023-05-05T23:44:17.828Z,101319.76
2023-05-05T23:49:20.781Z,101323.93
2023-05-05T23:54:23.538Z,101327.09
2023-05-05T23:59:26.610Z,101321.09
